sensor_id;sensor_type;location;lat;lon;timestamp;pressure;altitude;pressure_sealevel;temperature;humidity
21401;BME280;18038;50.166;18.908;2023-11-19T10:52:22;97563.84;;;0.07;84.37
21401;BME280;18038;50.166;18.908;2023-11-19T11:14:45;97528.31;;;7.77;100.00
21401;BME280;18038;50.166;18.908;2023-11-19T11:20:40;97524.31;;;17.20;78.40
21401;BME280;18038;50.166;18.908;2023-11-19T11:24:14;97535.59;;;18.59;71.53
21401;BME280;18038;50.166;18.908;2023-11-19T11:27:49;97525.25;;;19.31;67.22
21401;BME280;18038;50.166;18.908;2023-11-19T11:32:07;97505.47;;;20.14;63.51
21401;BME280;18038;50.166;18.908;2023-11-19T11:35:33;97503.28;;;20.67;60.92
21401;BME280;18038;50.166;18.908;2023-11-19T11:38:58;97499.41;;;21.24;59.94
21401;BME280;18038;50.166;18.908;2023-11-19T11:42:38;97501.69;;;21.72;58.03
21401;BME280;18038;50.166;18.908;2023-11-19T11:45:47;97489.78;;;22.07;57.25
21401;BME280;18038;50.166;18.908;2023-11-19T11:48:55;97479.56;;;22.33;56.29
21401;BME280;18038;50.166;18.908;2023-11-19T11:52:09;97478.81;;;22.57;55.23
21401;BME280;18038;50.166;18.908;2023-11-19T11:55:23;97469.78;;;22.91;54.31
21401;BME280;18038;50.166;18.908;2023-11-19T11:58:35;97461.16;;;23.08;53.66
21401;BME280;18038;50.166;18.908;2023-11-19T12:02:03;97462.16;;;23.17;50.14
21401;BME280;18038;50.166;18.908;2023-11-19T12:05:11;97451.13;;;23.03;48.96
21401;BME280;18038;50.166;18.908;2023-11-19T12:08:26;97443.59;;;22.95;49.13
21401;BME280;18038;50.166;18.908;2023-11-19T12:11:36;97443.34;;;22.91;48.68
21401;BME280;18038;50.166;18.908;2023-11-19T12:15:07;97436.00;;;22.92;47.58
21401;BME280;18038;50.166;18.908;2023-11-19T12:18:19;97434.97;;;22.88;47.51
21401;BME280;18038;50.166;18.908;2023-11-19T12:21:31;97432.31;;;22.83;47.53
21401;BME280;18038;50.166;18.908;2023-11-19T12:24:44;97423.56;;;22.86;46.86
21401;BME280;18038;50.166;18.908;2023-11-19T12:27:53;97415.38;;;22.86;46.71
21401;BME280;18038;50.166;18.908;2023-11-19T12:35:58;97405.19;;;12.52;37.42
21401;BME280;18038;50.166;18.908;2023-11-19T12:39:10;97383.66;;;7.07;50.61
21401;BME280;18038;50.166;18.908;2023-11-19T12:42:20;97396.84;;;4.19;60.35
21401;BME280;18038;50.166;18.908;2023-11-19T12:45:36;97389.03;;;2.70;66.72
21401;BME280;18038;50.166;18.908;2023-11-19T12:48:43;97396.47;;;1.71;71.61
21401;BME280;18038;50.166;18.908;2023-11-19T12:51:55;97389.59;;;0.99;77.40
21401;BME280;18038;50.166;18.908;2023-11-19T12:55:04;97355.94;;;0.49;81.52
21401;BME280;18038;50.166;18.908;2023-11-19T12:58:32;97362.38;;;-0.01;85.92
21401;BME280;18038;50.166;18.908;2023-11-19T13:01:40;97368.13;;;-0.25;87.74
21401;BME280;18038;50.166;18.908;2023-11-19T13:04:50;97360.41;;;-0.36;89.40
21401;BME280;18038;50.166;18.908;2023-11-19T13:08:07;97366.69;;;-0.57;91.19
21401;BME280;18038;50.166;18.908;2023-11-19T13:11:31;97359.22;;;-0.71;93.62
21401;BME280;18038;50.166;18.908;2023-11-19T13:14:40;97351.66;;;-0.64;94.57
21401;BME280;18038;50.166;18.908;2023-11-19T13:17:58;97345.63;;;-0.28;93.21
21401;BME280;18038;50.166;18.908;2023-11-19T13:21:10;97333.44;;;-0.29;93.66
21401;BME280;18038;50.166;18.908;2023-11-19T13:24:21;97339.38;;;-0.27;93.74
21401;BME280;18038;50.166;18.908;2023-11-19T13:27:28;97344.34;;;-0.23;94.93
21401;BME280;18038;50.166;18.908;2023-11-19T13:30:36;97334.41;;;-0.20;95.02
21401;BME280;18038;50.166;18.908;2023-11-19T13:33:44;97336.19;;;-0.20;95.45
21401;BME280;18038;50.166;18.908;2023-11-19T13:36:52;97324.97;;;-0.13;95.71
21401;BME280;18038;50.166;18.908;2023-11-19T13:40:05;97327.28;;;0.00;96.17
21401;BME280;18038;50.166;18.908;2023-11-19T13:43:16;97313.13;;;0.11;95.89
21401;BME280;18038;50.166;18.908;2023-11-19T13:46:26;97315.34;;;0.06;96.15
